METAR AND TAF INFORMATION
METAR FOR GMMX
ADDS - METARS form results

(1210 UTC 28 November 2020)
Data provider http://aviationweather.gov/metar/data/
 
METAR text: GMMX 281200Z 26004KT 150V320 9999 FEW023 17/08 Q1015 NOSIG
Conditions at: GMMX (MARRAKECH/MENARA, MA) observed 1200 UTC 28 November 2020
Temperature: 17.0°C (63°F)
Dewpoint: 8.0°C (46°F) [RH = 55%]
Pressure (altimeter): 29.97 inches Hg (1015.0 mb)
Winds: from the W (260 degrees) at 5 MPH (4 knots; 2.1 m/s)
Visibility: 6 or more miles (10+ km)
Ceiling: at least 12,000 feet AGL
Clouds: few clouds at 2300 feet AGL
Weather: no significant weather observed at this time

METAR text: GMMX 281130Z 20003KT 120V270 9999 FEW023 16/09 Q1015 NOSIG
Conditions at: GMMX (MARRAKECH/MENARA, MA) observed 1130 UTC 28 November 2020
Temperature: 16.0°C (61°F)
Dewpoint: 9.0°C (48°F) [RH = 63%]
Pressure (altimeter): 29.97 inches Hg (1015.0 mb)
Winds: from the SSW (200 degrees) at 3 MPH (3 knots; 1.5 m/s)
Visibility: 6 or more miles (10+ km)
Ceiling: at least 12,000 feet AGL
Clouds: few clouds at 2300 feet AGL
Weather: no significant weather observed at this time

Forecast for: GMMX (MARRAKECH/MENARA, MA)
Text: TAF GMMX 281100Z 2812/2918 24006KT 9999 SCT026 SC100
Forecast period: 1200 UTC 28 November 2020 to 1600 UTC 29 November 2020
Forecast type: FROM: standard forecast or significant change
Winds: from the WSW (240 degrees) at 7 MPH (6 knots; 3.1 m/s)
Visibility: 6 or more miles (10+ km)
Ceiling: at least 12,000 feet AGL
Clouds: scattered clouds at 2600 feet AGL
Weather: no significant weather forecast for this period
Text: BECMG 2916/2918 32016KT 5000 SHRA SCT015 BKN020
Forecast period: 1600 to 1800 UTC 29 November 2020
Forecast type: BECOMING: Conditions expected to become as follows by 1800 UTC 29 November 2020
Winds: from the NW (320 degrees) at 18 MPH (16 knots; 8.2 m/s)
Visibility: 3 miles (5 km)
Ceiling: 2000 feet AGL
Clouds: scattered clouds at 1500 feet AGL
broken clouds at 2000 feet AGL
Weather: SHRA  (rain showers)

 AIRPORT MAP

 RUNWAY INFORMATION
Runway 10 Runway length 10170 ft Runway width 148 ft
Runway elevation 1506 ft Runway displaced threshold 918 ft Runway heading 96
Runway 28 Runway length 10170 ft Runway width 148 ft
Runway elevation 1545 ft Runway displaced threshold 0 ft Runway heading 276

 AIRPORT FREQUENCIES
Type APP Name MARRAKECH Frequency 119.7 MHZ
Type TWR Name MARRAKECH Frequency 118.7 MHZ

 AIRPORT NEAR NAVIGATION AIDS
Type NDB Name Marrakech Frequency 267 KHZ
Type VOR-DME Name Marrakech Frequency 113300 KHZ



Powered by Virtual Airlines Manager [v2.6.2]